sensor_id;sensor_type;location;lat;lon;timestamp;temperature;humidity
78297;DHT22;67555;47.660;19.622;2023-08-24T00:01:36;22.00;77.80
78297;DHT22;67555;47.660;19.622;2023-08-24T00:04:02;22.00;77.70
78297;DHT22;67555;47.660;19.622;2023-08-24T00:06:28;21.90;77.70
78297;DHT22;67555;47.660;19.622;2023-08-24T00:08:54;21.90;77.60
78297;DHT22;67555;47.660;19.622;2023-08-24T00:11:20;21.90;77.60
78297;DHT22;67555;47.660;19.622;2023-08-24T00:13:48;21.90;77.80
78297;DHT22;67555;47.660;19.622;2023-08-24T00:16:18;21.90;77.90
78297;DHT22;67555;47.660;19.622;2023-08-24T00:18:44;21.80;78.20
78297;DHT22;67555;47.660;19.622;2023-08-24T00:21:13;21.70;78.40
78297;DHT22;67555;47.660;19.622;2023-08-24T00:23:38;21.70;78.70
78297;DHT22;67555;47.660;19.622;2023-08-24T00:26:04;21.70;78.90
78297;DHT22;67555;47.660;19.622;2023-08-24T00:28:30;21.60;79.10
78297;DHT22;67555;47.660;19.622;2023-08-24T00:30:55;21.50;79.50
78297;DHT22;67555;47.660;19.622;2023-08-24T00:33:21;21.50;79.70
78297;DHT22;67555;47.660;19.622;2023-08-24T00:35:47;21.40;79.80
78297;DHT22;67555;47.660;19.622;2023-08-24T00:38:13;21.40;79.70
78297;DHT22;67555;47.660;19.622;2023-08-24T00:40:43;21.40;79.60
78297;DHT22;67555;47.660;19.622;2023-08-24T00:43:09;21.40;79.50
78297;DHT22;67555;47.660;19.622;2023-08-24T00:45:35;21.40;79.60
78297;DHT22;67555;47.660;19.622;2023-08-24T00:48:02;21.40;79.80
78297;DHT22;67555;47.660;19.622;2023-08-24T00:50:28;21.40;80.00
78297;DHT22;67555;47.660;19.622;2023-08-24T00:52:54;21.40;80.00
78297;DHT22;67555;47.660;19.622;2023-08-24T00:55:21;21.30;80.10
78297;DHT22;67555;47.660;19.622;2023-08-24T00:57:47;21.30;80.10
78297;DHT22;67555;47.660;19.622;2023-08-24T01:00:14;21.30;80.30
78297;DHT22;67555;47.660;19.622;2023-08-24T01:02:40;21.30;80.50
78297;DHT22;67555;47.660;19.622;2023-08-24T01:05:06;21.20;80.60
78297;DHT22;67555;47.660;19.622;2023-08-24T01:07:38;21.10;80.80
78297;DHT22;67555;47.660;19.622;2023-08-24T01:10:07;21.10;80.90
78297;DHT22;67555;47.660;19.622;2023-08-24T01:15:18;21.10;81.10
78297;DHT22;67555;47.660;19.622;2023-08-24T01:17:46;21.10;81.20
78297;DHT22;67555;47.660;19.622;2023-08-24T01:20:14;21.10;81.20
78297;DHT22;67555;47.660;19.622;2023-08-24T01:22:57;21.10;81.50
78297;DHT22;67555;47.660;19.622;2023-08-24T01:25:38;21.10;81.50
78297;DHT22;67555;47.660;19.622;2023-08-24T01:28:06;21.10;81.60
78297;DHT22;67555;47.660;19.622;2023-08-24T01:30:34;21.00;81.70
78297;DHT22;67555;47.660;19.622;2023-08-24T01:33:05;21.00;81.90
78297;DHT22;67555;47.660;19.622;2023-08-24T01:35:31;21.00;82.00
78297;DHT22;67555;47.660;19.622;2023-08-24T01:37:58;21.00;82.00
78297;DHT22;67555;47.660;19.622;2023-08-24T01:40:42;21.00;82.00
78297;DHT22;67555;47.660;19.622;2023-08-24T01:43:13;21.10;82.00
78297;DHT22;67555;47.660;19.622;2023-08-24T01:45:41;21.10;82.00
78297;DHT22;67555;47.660;19.622;2023-08-24T01:48:07;21.00;82.10
78297;DHT22;67555;47.660;19.622;2023-08-24T01:50:34;21.00;82.10
78297;DHT22;67555;47.660;19.622;2023-08-24T01:53:01;21.00;82.10
78297;DHT22;67555;47.660;19.622;2023-08-24T01:55:27;21.10;82.00
78297;DHT22;67555;47.660;19.622;2023-08-24T01:57:54;21.10;81.90
78297;DHT22;67555;47.660;19.622;2023-08-24T02:00:20;21.10;81.70
78297;DHT22;67555;47.660;19.622;2023-08-24T02:02:47;21.10;81.60
78297;DHT22;67555;47.660;19.622;2023-08-24T02:05:13;21.10;81.50
78297;DHT22;67555;47.660;19.622;2023-08-24T02:07:39;21.30;81.40
78297;DHT22;67555;47.660;19.622;2023-08-24T02:10:06;21.30;81.20
78297;DHT22;67555;47.660;19.622;2023-08-24T02:12:32;21.30;81.20
78297;DHT22;67555;47.660;19.622;2023-08-24T02:14:58;21.30;81.20
78297;DHT22;67555;47.660;19.622;2023-08-24T02:17:24;21.20;81.20
78297;DHT22;67555;47.660;19.622;2023-08-24T02:19:49;21.30;81.20
78297;DHT22;67555;47.660;19.622;2023-08-24T02:22:15;21.30;81.10
78297;DHT22;67555;47.660;19.622;2023-08-24T02:24:42;21.40;81.00
78297;DHT22;67555;47.660;19.622;2023-08-24T02:27:08;21.30;80.90
78297;DHT22;67555;47.660;19.622;2023-08-24T02:29:34;21.30;81.20
78297;DHT22;67555;47.660;19.622;2023-08-24T02:31:59;21.10;81.40
78297;DHT22;67555;47.660;19.622;2023-08-24T02:34:25;21.10;81.60
78297;DHT22;67555;47.660;19.622;2023-08-24T02:36:51;21.10;81.60
78297;DHT22;67555;47.660;19.622;2023-08-24T02:39:17;21.10;81.60
78297;DHT22;67555;47.660;19.622;2023-08-24T02:41:43;21.10;81.50
78297;DHT22;67555;47.660;19.622;2023-08-24T02:44:09;21.10;81.40
78297;DHT22;67555;47.660;19.622;2023-08-24T02:46:34;21.10;81.50
78297;DHT22;67555;47.660;19.622;2023-08-24T02:49:00;20.90;81.60
78297;DHT22;67555;47.660;19.622;2023-08-24T02:51:26;20.80;81.80
78297;DHT22;67555;47.660;19.622;2023-08-24T02:53:52;20.70;82.00
78297;DHT22;67555;47.660;19.622;2023-08-24T02:56:19;20.50;82.40
78297;DHT22;67555;47.660;19.622;2023-08-24T02:58:45;20.50;82.60
78297;DHT22;67555;47.660;19.622;2023-08-24T03:01:10;20.50;82.70
78297;DHT22;67555;47.660;19.622;2023-08-24T03:03:37;20.40;82.80
78297;DHT22;67555;47.660;19.622;2023-08-24T03:06:04;20.30;83.00
78297;DHT22;67555;47.660;19.622;2023-08-24T03:08:31;20.30;83.20
78297;DHT22;67555;47.660;19.622;2023-08-24T03:11:01;20.30;83.40
78297;DHT22;67555;47.660;19.622;2023-08-24T03:13:28;20.20;83.50
78297;DHT22;67555;47.660;19.622;2023-08-24T03:15:54;20.10;83.60
78297;DHT22;67555;47.660;19.622;2023-08-24T03:18:20;20.10;83.50
78297;DHT22;67555;47.660;19.622;2023-08-24T03:20:47;20.10;83.50
78297;DHT22;67555;47.660;19.622;2023-08-24T03:23:14;20.00;83.50
78297;DHT22;67555;47.660;19.622;2023-08-24T03:25:41;20.00;83.50
78297;DHT22;67555;47.660;19.622;2023-08-24T03:28:08;20.00;83.40
78297;DHT22;67555;47.660;19.622;2023-08-24T03:30:35;20.00;83.40
78297;DHT22;67555;47.660;19.622;2023-08-24T03:33:02;20.00;83.50
78297;DHT22;67555;47.660;19.622;2023-08-24T03:35:30;20.00;83.50
78297;DHT22;67555;47.660;19.622;2023-08-24T03:37:56;20.00;83.50
78297;DHT22;67555;47.660;19.622;2023-08-24T03:40:22;20.00;83.40
78297;DHT22;67555;47.660;19.622;2023-08-24T03:42:47;20.00;83.30
78297;DHT22;67555;47.660;19.622;2023-08-24T03:45:13;20.10;83.30
78297;DHT22;67555;47.660;19.622;2023-08-24T03:47:39;20.10;83.30
78297;DHT22;67555;47.660;19.622;2023-08-24T03:50:05;20.10;83.40
78297;DHT22;67555;47.660;19.622;2023-08-24T03:52:31;20.10;83.50
78297;DHT22;67555;47.660;19.622;2023-08-24T03:54:57;20.10;83.70
78297;DHT22;67555;47.660;19.622;2023-08-24T03:57:23;20.20;83.70
78297;DHT22;67555;47.660;19.622;2023-08-24T03:59:48;20.30;83.80
78297;DHT22;67555;47.660;19.622;2023-08-24T04:02:14;20.30;84.00
78297;DHT22;67555;47.660;19.622;2023-08-24T04:04:40;20.30;84.20
78297;DHT22;67555;47.660;19.622;2023-08-24T04:07:06;20.30;84.30
78297;DHT22;67555;47.660;19.622;2023-08-24T04:09:32;20.30;84.50
78297;DHT22;67555;47.660;19.622;2023-08-24T04:11:57;20.30;84.60
78297;DHT22;67555;47.660;19.622;2023-08-24T04:14:23;20.20;84.70
78297;DHT22;67555;47.660;19.622;2023-08-24T04:16:49;20.20;84.70
78297;DHT22;67555;47.660;19.622;2023-08-24T04:19:14;20.10;84.70
78297;DHT22;67555;47.660;19.622;2023-08-24T04:21:40;20.10;84.70
78297;DHT22;67555;47.660;19.622;2023-08-24T04:24:06;20.20;84.70
78297;DHT22;67555;47.660;19.622;2023-08-24T04:26:32;20.20;84.70
78297;DHT22;67555;47.660;19.622;2023-08-24T04:28:58;20.20;84.60
78297;DHT22;67555;47.660;19.622;2023-08-24T04:31:24;20.20;84.60
78297;DHT22;67555;47.660;19.622;2023-08-24T04:33:49;20.30;84.50
78297;DHT22;67555;47.660;19.622;2023-08-24T04:36:15;20.30;84.40
78297;DHT22;67555;47.660;19.622;2023-08-24T04:38:41;20.30;84.40
78297;DHT22;67555;47.660;19.622;2023-08-24T04:41:08;20.50;84.40
78297;DHT22;67555;47.660;19.622;2023-08-24T04:43:35;20.50;84.60
78297;DHT22;67555;47.660;19.622;2023-08-24T04:46:03;20.50;84.60
78297;DHT22;67555;47.660;19.622;2023-08-24T04:48:28;20.50;84.60
78297;DHT22;67555;47.660;19.622;2023-08-24T04:51:00;20.60;84.70
78297;DHT22;67555;47.660;19.622;2023-08-24T04:53:26;20.70;84.60
78297;DHT22;67555;47.660;19.622;2023-08-24T04:55:51;20.80;84.50
78297;DHT22;67555;47.660;19.622;2023-08-24T04:58:18;20.80;84.50
78297;DHT22;67555;47.660;19.622;2023-08-24T05:00:44;20.90;84.50
78297;DHT22;67555;47.660;19.622;2023-08-24T05:03:10;21.00;84.40
78297;DHT22;67555;47.660;19.622;2023-08-24T05:05:36;21.10;84.30
78297;DHT22;67555;47.660;19.622;2023-08-24T05:08:04;21.10;84.20
78297;DHT22;67555;47.660;19.622;2023-08-24T05:10:32;21.30;84.10
78297;DHT22;67555;47.660;19.622;2023-08-24T05:12:59;21.40;84.00
78297;DHT22;67555;47.660;19.622;2023-08-24T05:15:25;21.40;84.00
78297;DHT22;67555;47.660;19.622;2023-08-24T05:17:51;21.50;83.90
78297;DHT22;67555;47.660;19.622;2023-08-24T05:20:25;21.50;83.70
78297;DHT22;67555;47.660;19.622;2023-08-24T05:22:51;21.70;83.40
78297;DHT22;67555;47.660;19.622;2023-08-24T05:25:17;21.70;83.20
78297;DHT22;67555;47.660;19.622;2023-08-24T05:27:43;21.90;83.10
78297;DHT22;67555;47.660;19.622;2023-08-24T05:30:10;21.90;83.00
78297;DHT22;67555;47.660;19.622;2023-08-24T05:32:36;22.00;82.80
78297;DHT22;67555;47.660;19.622;2023-08-24T05:35:05;22.20;82.60
78297;DHT22;67555;47.660;19.622;2023-08-24T05:37:32;22.30;82.40
78297;DHT22;67555;47.660;19.622;2023-08-24T05:39:58;22.50;82.20
78297;DHT22;67555;47.660;19.622;2023-08-24T05:42:24;22.50;82.10
78297;DHT22;67555;47.660;19.622;2023-08-24T05:44:50;22.60;82.00
78297;DHT22;67555;47.660;19.622;2023-08-24T05:47:15;22.70;81.90
78297;DHT22;67555;47.660;19.622;2023-08-24T05:49:41;22.70;81.80
78297;DHT22;67555;47.660;19.622;2023-08-24T05:52:07;22.80;81.70
78297;DHT22;67555;47.660;19.622;2023-08-24T05:54:33;22.90;81.60
78297;DHT22;67555;47.660;19.622;2023-08-24T05:56:58;23.00;81.40
78297;DHT22;67555;47.660;19.622;2023-08-24T05:59:27;23.20;81.20
78297;DHT22;67555;47.660;19.622;2023-08-24T06:01:53;23.30;80.90
78297;DHT22;67555;47.660;19.622;2023-08-24T06:04:18;23.50;80.70
78297;DHT22;67555;47.660;19.622;2023-08-24T06:06:45;23.60;80.30
78297;DHT22;67555;47.660;19.622;2023-08-24T06:09:10;23.60;80.10
78297;DHT22;67555;47.660;19.622;2023-08-24T06:11:36;23.80;80.00
78297;DHT22;67555;47.660;19.622;2023-08-24T06:14:02;24.00;79.70
78297;DHT22;67555;47.660;19.622;2023-08-24T06:16:30;24.00;79.30
78297;DHT22;67555;47.660;19.622;2023-08-24T06:18:56;24.20;79.00
78297;DHT22;67555;47.660;19.622;2023-08-24T06:21:22;24.20;78.80
78297;DHT22;67555;47.660;19.622;2023-08-24T06:23:47;24.30;78.70
78297;DHT22;67555;47.660;19.622;2023-08-24T06:26:13;24.40;78.40
78297;DHT22;67555;47.660;19.622;2023-08-24T06:28:40;24.50;78.10
78297;DHT22;67555;47.660;19.622;2023-08-24T06:31:05;24.60;77.70
78297;DHT22;67555;47.660;19.622;2023-08-24T06:33:37;24.70;77.50
78297;DHT22;67555;47.660;19.622;2023-08-24T06:36:04;24.80;77.10
78297;DHT22;67555;47.660;19.622;2023-08-24T06:38:33;24.80;76.60
78297;DHT22;67555;47.660;19.622;2023-08-24T06:40:59;25.00;76.20
78297;DHT22;67555;47.660;19.622;2023-08-24T06:43:28;25.00;76.10
78297;DHT22;67555;47.660;19.622;2023-08-24T06:45:57;25.00;75.80
78297;DHT22;67555;47.660;19.622;2023-08-24T06:48:23;25.20;75.70
78297;DHT22;67555;47.660;19.622;2023-08-24T06:50:49;25.30;75.30
78297;DHT22;67555;47.660;19.622;2023-08-24T06:53:14;25.40;74.80
78297;DHT22;67555;47.660;19.622;2023-08-24T06:55:40;25.50;74.30
78297;DHT22;67555;47.660;19.622;2023-08-24T06:58:06;25.60;74.10
78297;DHT22;67555;47.660;19.622;2023-08-24T07:00:32;25.70;73.60
78297;DHT22;67555;47.660;19.622;2023-08-24T07:02:59;25.80;72.70
78297;DHT22;67555;47.660;19.622;2023-08-24T07:05:25;26.00;71.90
78297;DHT22;67555;47.660;19.622;2023-08-24T07:07:51;26.00;71.60
78297;DHT22;67555;47.660;19.622;2023-08-24T07:10:17;26.10;70.50
78297;DHT22;67555;47.660;19.622;2023-08-24T07:12:43;26.20;70.40
78297;DHT22;67555;47.660;19.622;2023-08-24T07:15:11;26.40;70.40
78297;DHT22;67555;47.660;19.622;2023-08-24T07:17:37;26.50;70.10
78297;DHT22;67555;47.660;19.622;2023-08-24T07:20:04;26.60;69.90
78297;DHT22;67555;47.660;19.622;2023-08-24T07:22:39;26.70;68.90
78297;DHT22;67555;47.660;19.622;2023-08-24T07:25:05;26.80;67.60
78297;DHT22;67555;47.660;19.622;2023-08-24T07:27:32;26.80;67.90
78297;DHT22;67555;47.660;19.622;2023-08-24T07:29:59;26.90;67.90
78297;DHT22;67555;47.660;19.622;2023-08-24T07:32:26;27.10;67.80
78297;DHT22;67555;47.660;19.622;2023-08-24T07:34:52;27.30;67.30
78297;DHT22;67555;47.660;19.622;2023-08-24T07:37:17;27.50;67.00
78297;DHT22;67555;47.660;19.622;2023-08-24T07:39:43;27.60;66.70
78297;DHT22;67555;47.660;19.622;2023-08-24T07:42:09;27.70;66.50
78297;DHT22;67555;47.660;19.622;2023-08-24T07:44:35;27.70;66.20
78297;DHT22;67555;47.660;19.622;2023-08-24T07:47:01;27.70;66.20
78297;DHT22;67555;47.660;19.622;2023-08-24T07:49:27;27.70;65.70
78297;DHT22;67555;47.660;19.622;2023-08-24T07:51:53;27.80;65.10
78297;DHT22;67555;47.660;19.622;2023-08-24T07:54:18;27.80;65.20
78297;DHT22;67555;47.660;19.622;2023-08-24T07:56:45;27.90;65.00
78297;DHT22;67555;47.660;19.622;2023-08-24T07:59:11;27.90;64.80
78297;DHT22;67555;47.660;19.622;2023-08-24T08:01:37;28.00;64.60
78297;DHT22;67555;47.660;19.622;2023-08-24T08:04:03;28.10;63.70
78297;DHT22;67555;47.660;19.622;2023-08-24T08:06:29;28.10;63.60
78297;DHT22;67555;47.660;19.622;2023-08-24T08:08:54;28.00;63.00
78297;DHT22;67555;47.660;19.622;2023-08-24T08:11:20;28.10;63.10
78297;DHT22;67555;47.660;19.622;2023-08-24T08:13:46;28.30;62.80
78297;DHT22;67555;47.660;19.622;2023-08-24T08:16:12;28.50;62.70
78297;DHT22;67555;47.660;19.622;2023-08-24T08:18:38;28.70;62.30
78297;DHT22;67555;47.660;19.622;2023-08-24T08:21:16;28.80;61.70
78297;DHT22;67555;47.660;19.622;2023-08-24T08:23:45;28.70;61.20
78297;DHT22;67555;47.660;19.622;2023-08-24T08:26:11;28.60;61.00
78297;DHT22;67555;47.660;19.622;2023-08-24T08:28:37;28.30;61.10
78297;DHT22;67555;47.660;19.622;2023-08-24T08:31:03;28.30;61.60
78297;DHT22;67555;47.660;19.622;2023-08-24T08:33:29;28.30;61.40
78297;DHT22;67555;47.660;19.622;2023-08-24T08:35:56;28.30;61.30
78297;DHT22;67555;47.660;19.622;2023-08-24T08:38:21;28.40;61.10
78297;DHT22;67555;47.660;19.622;2023-08-24T08:40:52;28.50;60.00
78297;DHT22;67555;47.660;19.622;2023-08-24T08:43:21;28.50;58.00
78297;DHT22;67555;47.660;19.622;2023-08-24T08:45:51;28.50;58.00
78297;DHT22;67555;47.660;19.622;2023-08-24T08:48:18;28.50;57.80
78297;DHT22;67555;47.660;19.622;2023-08-24T08:50:48;28.60;57.20
78297;DHT22;67555;47.660;19.622;2023-08-24T08:53:15;28.60;56.90
78297;DHT22;67555;47.660;19.622;2023-08-24T08:55:41;28.80;57.10
78297;DHT22;67555;47.660;19.622;2023-08-24T08:58:07;28.90;57.10
78297;DHT22;67555;47.660;19.622;2023-08-24T09:00:34;29.10;56.20
78297;DHT22;67555;47.660;19.622;2023-08-24T09:03:01;29.10;56.00
78297;DHT22;67555;47.660;19.622;2023-08-24T09:05:28;29.00;53.60
78297;DHT22;67555;47.660;19.622;2023-08-24T09:07:55;29.00;53.50
78297;DHT22;67555;47.660;19.622;2023-08-24T09:10:22;28.90;54.60
78297;DHT22;67555;47.660;19.622;2023-08-24T09:12:48;28.90;54.60
78297;DHT22;67555;47.660;19.622;2023-08-24T09:15:14;28.90;54.10
78297;DHT22;67555;47.660;19.622;2023-08-24T09:17:43;28.90;54.00
78297;DHT22;67555;47.660;19.622;2023-08-24T09:20:09;28.90;52.20
78297;DHT22;67555;47.660;19.622;2023-08-24T09:22:37;28.90;51.00
78297;DHT22;67555;47.660;19.622;2023-08-24T09:25:09;28.90;51.30
78297;DHT22;67555;47.660;19.622;2023-08-24T09:27:35;28.90;51.90
78297;DHT22;67555;47.660;19.622;2023-08-24T09:30:01;29.10;52.50
78297;DHT22;67555;47.660;19.622;2023-08-24T09:32:33;29.20;52.50
78297;DHT22;67555;47.660;19.622;2023-08-24T09:35:08;29.30;52.60
78297;DHT22;67555;47.660;19.622;2023-08-24T09:37:35;29.40;52.00
78297;DHT22;67555;47.660;19.622;2023-08-24T09:40:05;29.30;51.90
78297;DHT22;67555;47.660;19.622;2023-08-24T09:42:39;29.20;50.90
78297;DHT22;67555;47.660;19.622;2023-08-24T09:45:06;29.10;49.90
78297;DHT22;67555;47.660;19.622;2023-08-24T09:47:33;29.10;50.50
78297;DHT22;67555;47.660;19.622;2023-08-24T09:49:59;29.20;50.50
78297;DHT22;67555;47.660;19.622;2023-08-24T09:52:31;29.30;49.80
78297;DHT22;67555;47.660;19.622;2023-08-24T09:55:04;29.30;49.60
78297;DHT22;67555;47.660;19.622;2023-08-24T09:57:42;29.40;49.60
78297;DHT22;67555;47.660;19.622;2023-08-24T10:00:10;29.50;49.00
78297;DHT22;67555;47.660;19.622;2023-08-24T10:02:51;29.60;49.00
78297;DHT22;67555;47.660;19.622;2023-08-24T10:05:20;29.70;46.20
78297;DHT22;67555;47.660;19.622;2023-08-24T10:07:51;29.70;44.60
78297;DHT22;67555;47.660;19.622;2023-08-24T10:10:19;29.80;44.70
78297;DHT22;67555;47.660;19.622;2023-08-24T10:12:51;29.90;44.60
78297;DHT22;67555;47.660;19.622;2023-08-24T10:15:18;30.00;43.90
78297;DHT22;67555;47.660;19.622;2023-08-24T10:17:45;30.00;42.70
78297;DHT22;67555;47.660;19.622;2023-08-24T10:20:11;30.00;43.30
78297;DHT22;67555;47.660;19.622;2023-08-24T10:22:38;30.00;43.90
78297;DHT22;67555;47.660;19.622;2023-08-24T10:25:08;30.10;44.10
78297;DHT22;67555;47.660;19.622;2023-08-24T10:27:54;30.10;44.00
78297;DHT22;67555;47.660;19.622;2023-08-24T10:30:20;30.30;44.40
78297;DHT22;67555;47.660;19.622;2023-08-24T10:32:46;30.40;44.10
78297;DHT22;67555;47.660;19.622;2023-08-24T10:35:13;30.50;42.30
78297;DHT22;67555;47.660;19.622;2023-08-24T10:37:41;30.40;42.40
78297;DHT22;67555;47.660;19.622;2023-08-24T10:40:10;30.40;42.20
78297;DHT22;67555;47.660;19.622;2023-08-24T10:42:46;30.30;42.20
78297;DHT22;67555;47.660;19.622;2023-08-24T10:45:13;30.30;42.40
78297;DHT22;67555;47.660;19.622;2023-08-24T10:47:52;30.40;42.50
78297;DHT22;67555;47.660;19.622;2023-08-24T10:50:21;30.50;42.60
78297;DHT22;67555;47.660;19.622;2023-08-24T10:52:47;30.60;42.60
78297;DHT22;67555;47.660;19.622;2023-08-24T10:55:26;30.70;42.40
78297;DHT22;67555;47.660;19.622;2023-08-24T10:57:59;30.70;42.60
78297;DHT22;67555;47.660;19.622;2023-08-24T11:00:27;30.70;43.00
78297;DHT22;67555;47.660;19.622;2023-08-24T11:02:53;30.60;43.30
78297;DHT22;67555;47.660;19.622;2023-08-24T11:05:26;30.70;43.70
78297;DHT22;67555;47.660;19.622;2023-08-24T11:08:06;30.80;43.90
78297;DHT22;67555;47.660;19.622;2023-08-24T11:13:13;31.00;43.80
78297;DHT22;67555;47.660;19.622;2023-08-24T11:15:41;30.90;43.60
78297;DHT22;67555;47.660;19.622;2023-08-24T11:18:25;30.90;43.60
78297;DHT22;67555;47.660;19.622;2023-08-24T11:23:19;30.90;42.70
78297;DHT22;67555;47.660;19.622;2023-08-24T11:25:46;30.90;43.20
78297;DHT22;67555;47.660;19.622;2023-08-24T11:28:17;30.90;43.30
78297;DHT22;67555;47.660;19.622;2023-08-24T11:30:45;30.90;42.80
78297;DHT22;67555;47.660;19.622;2023-08-24T11:33:11;30.90;42.80
78297;DHT22;67555;47.660;19.622;2023-08-24T11:35:44;30.90;43.00
78297;DHT22;67555;47.660;19.622;2023-08-24T11:38:11;30.90;42.80
78297;DHT22;67555;47.660;19.622;2023-08-24T11:40:40;30.80;42.50
78297;DHT22;67555;47.660;19.622;2023-08-24T11:43:06;30.80;42.20
78297;DHT22;67555;47.660;19.622;2023-08-24T11:45:34;30.80;40.90
78297;DHT22;67555;47.660;19.622;2023-08-24T11:48:02;30.80;41.10
78297;DHT22;67555;47.660;19.622;2023-08-24T11:50:28;30.80;41.10
78297;DHT22;67555;47.660;19.622;2023-08-24T11:52:54;30.90;40.50
78297;DHT22;67555;47.660;19.622;2023-08-24T11:55:23;30.90;40.10
78297;DHT22;67555;47.660;19.622;2023-08-24T11:57:50;30.90;40.10
78297;DHT22;67555;47.660;19.622;2023-08-24T12:00:16;30.80;39.80
78297;DHT22;67555;47.660;19.622;2023-08-24T12:02:43;30.80;39.60
78297;DHT22;67555;47.660;19.622;2023-08-24T12:05:20;30.80;37.10
78297;DHT22;67555;47.660;19.622;2023-08-24T12:07:46;30.80;36.80
78297;DHT22;67555;47.660;19.622;2023-08-24T12:10:12;30.90;36.90
78297;DHT22;67555;47.660;19.622;2023-08-24T12:12:38;31.00;37.30
78297;DHT22;67555;47.660;19.622;2023-08-24T12:15:04;31.00;38.30
78297;DHT22;67555;47.660;19.622;2023-08-24T12:17:31;31.10;39.00
78297;DHT22;67555;47.660;19.622;2023-08-24T12:20:07;31.10;38.60
78297;DHT22;67555;47.660;19.622;2023-08-24T12:22:38;31.20;38.90
78297;DHT22;67555;47.660;19.622;2023-08-24T12:25:04;31.30;39.00
78297;DHT22;67555;47.660;19.622;2023-08-24T12:27:31;31.50;39.00
78297;DHT22;67555;47.660;19.622;2023-08-24T12:30:03;31.70;38.50
78297;DHT22;67555;47.660;19.622;2023-08-24T12:32:48;31.80;38.10
78297;DHT22;67555;47.660;19.622;2023-08-24T12:35:17;31.90;37.50
78297;DHT22;67555;47.660;19.622;2023-08-24T12:37:43;32.00;37.00
78297;DHT22;67555;47.660;19.622;2023-08-24T12:40:10;32.10;37.40
78297;DHT22;67555;47.660;19.622;2023-08-24T12:42:36;32.20;36.10
78297;DHT22;67555;47.660;19.622;2023-08-24T12:45:02;32.20;36.60
78297;DHT22;67555;47.660;19.622;2023-08-24T12:47:29;32.30;35.90
78297;DHT22;67555;47.660;19.622;2023-08-24T12:49:55;32.50;35.90
78297;DHT22;67555;47.660;19.622;2023-08-24T12:52:22;32.50;34.60
78297;DHT22;67555;47.660;19.622;2023-08-24T12:54:49;32.60;34.90
78297;DHT22;67555;47.660;19.622;2023-08-24T12:57:14;32.80;35.20
78297;DHT22;67555;47.660;19.622;2023-08-24T12:59:40;33.00;35.90
78297;DHT22;67555;47.660;19.622;2023-08-24T13:02:06;33.10;36.00
78297;DHT22;67555;47.660;19.622;2023-08-24T13:04:32;33.30;36.30
78297;DHT22;67555;47.660;19.622;2023-08-24T13:06:58;33.60;35.90
78297;DHT22;67555;47.660;19.622;2023-08-24T13:09:24;33.70;35.40
78297;DHT22;67555;47.660;19.622;2023-08-24T13:11:50;33.70;35.10
78297;DHT22;67555;47.660;19.622;2023-08-24T13:14:16;33.80;35.50
78297;DHT22;67555;47.660;19.622;2023-08-24T13:16:41;33.90;35.70
78297;DHT22;67555;47.660;19.622;2023-08-24T13:19:07;34.00;34.90
78297;DHT22;67555;47.660;19.622;2023-08-24T13:21:33;34.00;34.10
78297;DHT22;67555;47.660;19.622;2023-08-24T13:23:59;33.90;33.40
78297;DHT22;67555;47.660;19.622;2023-08-24T13:26:24;33.80;32.40
78297;DHT22;67555;47.660;19.622;2023-08-24T13:28:51;33.80;33.20
78297;DHT22;67555;47.660;19.622;2023-08-24T13:31:17;33.80;33.70
78297;DHT22;67555;47.660;19.622;2023-08-24T13:33:44;33.80;33.40
78297;DHT22;67555;47.660;19.622;2023-08-24T13:36:10;33.60;33.10
78297;DHT22;67555;47.660;19.622;2023-08-24T13:38:36;33.60;33.10
78297;DHT22;67555;47.660;19.622;2023-08-24T13:41:02;33.60;32.90
78297;DHT22;67555;47.660;19.622;2023-08-24T13:43:29;33.50;32.80
78297;DHT22;67555;47.660;19.622;2023-08-24T13:45:55;33.40;33.00
78297;DHT22;67555;47.660;19.622;2023-08-24T13:48:21;33.30;32.50
78297;DHT22;67555;47.660;19.622;2023-08-24T13:50:53;33.30;32.80
78297;DHT22;67555;47.660;19.622;2023-08-24T13:53:19;33.20;33.00
78297;DHT22;67555;47.660;19.622;2023-08-24T13:55:44;33.10;33.00
78297;DHT22;67555;47.660;19.622;2023-08-24T13:58:10;33.00;32.30
78297;DHT22;67555;47.660;19.622;2023-08-24T14:00:36;32.80;32.70
78297;DHT22;67555;47.660;19.622;2023-08-24T14:03:03;32.60;33.50
78297;DHT22;67555;47.660;19.622;2023-08-24T14:05:29;32.50;33.60
78297;DHT22;67555;47.660;19.622;2023-08-24T14:07:55;32.20;33.90
78297;DHT22;67555;47.660;19.622;2023-08-24T14:10:21;32.10;34.60
78297;DHT22;67555;47.660;19.622;2023-08-24T14:12:47;32.00;34.50
78297;DHT22;67555;47.660;19.622;2023-08-24T14:15:12;31.90;34.60
78297;DHT22;67555;47.660;19.622;2023-08-24T14:17:39;31.90;34.90
78297;DHT22;67555;47.660;19.622;2023-08-24T14:20:05;31.80;34.80
78297;DHT22;67555;47.660;19.622;2023-08-24T14:22:31;31.80;34.50
78297;DHT22;67555;47.660;19.622;2023-08-24T14:24:56;31.70;34.70
78297;DHT22;67555;47.660;19.622;2023-08-24T14:27:23;31.70;34.90
78297;DHT22;67555;47.660;19.622;2023-08-24T14:29:49;31.60;34.70
78297;DHT22;67555;47.660;19.622;2023-08-24T14:32:14;31.60;35.00
78297;DHT22;67555;47.660;19.622;2023-08-24T14:34:40;31.50;35.10
78297;DHT22;67555;47.660;19.622;2023-08-24T14:37:06;31.50;35.30
78297;DHT22;67555;47.660;19.622;2023-08-24T14:39:32;31.50;35.50
78297;DHT22;67555;47.660;19.622;2023-08-24T14:41:57;31.50;35.20
78297;DHT22;67555;47.660;19.622;2023-08-24T14:44:23;31.40;35.00
78297;DHT22;67555;47.660;19.622;2023-08-24T14:46:49;31.40;35.40
78297;DHT22;67555;47.660;19.622;2023-08-24T14:49:14;31.40;35.60
78297;DHT22;67555;47.660;19.622;2023-08-24T14:51:44;31.40;35.20
78297;DHT22;67555;47.660;19.622;2023-08-24T14:54:10;31.30;35.10
78297;DHT22;67555;47.660;19.622;2023-08-24T14:56:39;31.30;35.30
78297;DHT22;67555;47.660;19.622;2023-08-24T14:59:05;31.40;35.60
78297;DHT22;67555;47.660;19.622;2023-08-24T15:01:36;31.40;35.80
78297;DHT22;67555;47.660;19.622;2023-08-24T15:04:01;31.40;35.70
78297;DHT22;67555;47.660;19.622;2023-08-24T15:06:27;31.40;36.00
78297;DHT22;67555;47.660;19.622;2023-08-24T15:08:53;31.40;36.10
78297;DHT22;67555;47.660;19.622;2023-08-24T15:11:19;31.30;35.80
78297;DHT22;67555;47.660;19.622;2023-08-24T15:13:46;31.30;35.90
78297;DHT22;67555;47.660;19.622;2023-08-24T15:16:15;31.20;36.10
78297;DHT22;67555;47.660;19.622;2023-08-24T15:18:42;31.20;36.00
78297;DHT22;67555;47.660;19.622;2023-08-24T15:21:08;31.10;36.20
78297;DHT22;67555;47.660;19.622;2023-08-24T15:23:34;31.10;35.90